Time;durP1;ratioP1;P1;durP2;ratioP2;P2;SDS_P1;SDS_P2;PMS_P1;PMS_P2;Temp;Humidity;BMP_temperature;BMP_pressure;BME280_temperature;BME280_humidity;BME280_pressure;Samples;Min_cycle;Max_cycle;Signal;HPM_P1;HPM_P2
2023/08/07 00:02:39;;;;;;;;;;;;;;;23.30;51.17;99587.30;2300500;76;50731;-74
2023/08/07 00:05:40;;;;;;;;;;;;;;;23.33;51.30;99594.95;2258483;78;52371;-74
2023/08/07 00:08:42;;;;;;;;;;;;;;;23.33;51.43;99590.90;2258426;78;51430;-74
2023/08/07 00:11:44;;;;;;;;;;;;;;;23.32;51.32;99590.05;2259013;78;51475;-75
2023/08/07 00:14:47;;;;;;;;;;;;;;;23.31;51.35;99581.67;2278466;77;50741;-75
2023/08/07 00:17:48;;;;;;;;;;;;;;;23.33;51.38;99588.20;2258526;77;52430;-75
2023/08/07 00:20:50;;;;;;;;;;;;;;;23.32;51.40;99577.09;2258562;78;51476;-74
2023/08/07 00:23:52;;;;;;;;;;;;;;;23.30;51.46;99575.16;2259115;78;51477;-73
2023/08/07 00:26:53;;;;;;;;;;;;;;;23.30;51.42;99573.81;2258734;77;51270;-75
2023/08/07 00:29:55;;;;;;;;;;;;;;;23.30;51.46;99575.16;2264739;76;52312;-75
2023/08/07 00:32:57;;;;;;;;;;;;;;;23.29;51.43;99577.58;2273499;77;51586;-74
2023/08/07 00:35:58;;;;;;;;;;;;;;;23.29;51.44;99574.34;2281245;76;52116;-74
2023/08/07 00:39:00;;;;;;;;;;;;;;;23.30;51.37;99575.16;2280995;78;50830;-76
2023/08/07 00:42:01;;;;;;;;;;;;;;;23.30;51.34;99576.00;2254791;76;51730;-75
2023/08/07 00:45:03;;;;;;;;;;;;;;;23.29;51.35;99580.28;2308114;76;50780;-76
2023/08/07 00:48:05;;;;;;;;;;;;;;;23.28;51.43;99571.91;2321661;75;50624;-75
2023/08/07 00:51:07;;;;;;;;;;;;;;;23.27;51.38;99564.31;2321885;76;50390;-76
2023/08/07 00:54:09;;;;;;;;;;;;;;;23.28;51.30;99565.97;2309547;76;52605;-76
2023/08/07 00:57:11;;;;;;;;;;;;;;;23.28;51.29;99566.50;2307839;76;51496;-75
2023/08/07 01:00:14;;;;;;;;;;;;;;;23.26;51.29;99572.95;2308951;76;50341;-76
2023/08/07 01:03:15;;;;;;;;;;;;;;;23.25;51.40;99572.66;2319379;76;51342;-76
2023/08/07 01:06:17;;;;;;;;;;;;;;;23.27;51.32;99577.80;2319947;75;51425;-72
2023/08/07 01:09:18;;;;;;;;;;;;;;;23.28;51.28;99580.00;2298797;76;51533;-75
2023/08/07 01:12:20;;;;;;;;;;;;;;;23.27;51.33;99575.11;2324203;76;51410;-75
2023/08/07 01:15:23;;;;;;;;;;;;;;;23.29;51.23;99570.83;2323970;76;50727;-75
2023/08/07 01:18:24;;;;;;;;;;;;;;;23.29;51.37;99566.78;2312460;76;52306;-74
2023/08/07 01:21:26;;;;;;;;;;;;;;;23.29;51.40;99567.59;2324093;76;50062;-74
2023/08/07 01:24:27;;;;;;;;;;;;;;;23.29;51.40;99570.83;2297393;76;50819;-74
2023/08/07 01:27:31;;;;;;;;;;;;;;;23.29;51.38;99566.78;2319580;75;51471;-76
2023/08/07 01:30:41;;;;;;;;;;;;;;;23.29;51.50;99566.78;2318173;76;51523;-75
2023/08/07 01:33:50;;;;;;;;;;;;;;;23.27;51.42;99561.61;2296658;76;50229;-76
2023/08/07 01:36:52;;;;;;;;;;;;;;;23.27;51.43;99553.52;2321594;75;50505;-74
2023/08/07 01:39:53;;;;;;;;;;;;;;;23.25;51.33;99555.12;2321761;76;50314;-75
2023/08/07 01:42:55;;;;;;;;;;;;;;;23.26;51.30;99535.16;2321841;76;50629;-75
2023/08/07 01:45:58;;;;;;;;;;;;;;;23.24;51.34;99538.63;2309831;75;51743;-75
2023/08/07 01:48:59;;;;;;;;;;;;;;;23.23;51.35;99541.05;2321699;76;51512;-75
2023/08/07 01:52:01;;;;;;;;;;;;;;;23.23;51.39;99532.13;2321854;76;50429;-75
2023/08/07 01:55:03;;;;;;;;;;;;;;;23.22;51.40;99529.97;2309936;76;50154;-76
2023/08/07 01:58:04;;;;;;;;;;;;;;;23.23;51.35;99528.09;2282410;76;52388;-74
2023/08/07 02:01:06;;;;;;;;;;;;;;;23.25;51.24;99529.48;2308659;76;50100;-75
2023/08/07 02:04:07;;;;;;;;;;;;;;;23.22;51.37;99525.92;2333535;76;51505;-74
2023/08/07 02:07:09;;;;;;;;;;;;;;;23.24;51.30;99527.83;2333348;75;51433;-75
2023/08/07 02:10:11;;;;;;;;;;;;;;;23.22;51.26;99528.63;2333692;76;50207;-75
2023/08/07 02:13:12;;;;;;;;;;;;;;;23.25;51.42;99535.42;2299510;76;50079;-74
2023/08/07 02:16:14;;;;;;;;;;;;;;;23.23;51.36;99528.09;2333534;75;49915;-74
2023/08/07 02:19:15;;;;;;;;;;;;;;;23.23;51.38;99537.00;2333755;76;50403;-75
2023/08/07 02:22:17;;;;;;;;;;;;;;;23.24;51.36;99550.77;2299273;76;51750;-76
2023/08/07 02:25:18;;;;;;;;;;;;;;;23.23;51.41;99553.19;2299544;76;51464;-74
2023/08/07 02:28:20;;;;;;;;;;;;;;;23.23;51.36;99552.37;2299559;76;51506;-75
2023/08/07 02:31:22;;;;;;;;;;;;;;;23.22;51.36;99551.56;2323987;75;51534;-75
2023/08/07 02:34:23;;;;;;;;;;;;;;;23.21;51.27;99558.00;2275950;76;50912;-74
2023/08/07 02:37:25;;;;;;;;;;;;;;;23.21;51.37;99558.53;2334220;75;50399;-76
2023/08/07 02:40:26;;;;;;;;;;;;;;;23.21;51.28;99562.58;2334614;76;50672;-74
2023/08/07 02:43:28;;;;;;;;;;;;;;;23.20;51.36;99563.66;2300750;76;50578;-75
2023/08/07 02:46:30;;;;;;;;;;;;;;;23.20;51.36;99569.87;2334150;75;49746;-75
2023/08/07 02:49:31;;;;;;;;;;;;;;;23.19;51.26;99569.56;2300464;76;50307;-75
2023/08/07 02:52:33;;;;;;;;;;;;;;;23.19;51.27;99570.91;2335123;75;50505;-75
2023/08/07 02:55:34;;;;;;;;;;;;;;;23.18;51.29;99573.33;2300383;76;50643;-74
2023/08/07 02:58:36;;;;;;;;;;;;;;;23.18;51.26;99565.23;2299964;76;50985;-74
2023/08/07 03:01:38;;;;;;;;;;;;;;;23.18;51.27;99580.61;2305513;75;50637;-74
2023/08/07 03:04:41;;;;;;;;;;;;;;;23.15;51.33;99568.95;2334143;76;50791;-75
2023/08/07 03:07:42;;;;;;;;;;;;;;;23.17;51.34;99575.75;2333744;75;51516;-75
2023/08/07 03:10:54;;;;;;;;;;;;;;;23.19;51.29;99569.56;2299939;76;50088;-75
2023/08/07 03:13:55;;;;;;;;;;;;;;;23.19;51.30;99570.91;2299929;76;51448;-75
2023/08/07 03:16:57;;;;;;;;;;;;;;;23.20;51.27;99573.10;2333958;75;50652;-74
2023/08/07 03:19:58;;;;;;;;;;;;;;;23.19;51.39;99572.80;2333952;76;51581;-74
2023/08/07 03:23:00;;;;;;;;;;;;;;;23.18;51.30;99573.33;2274415;76;51623;-74
2023/08/07 03:26:05;;;;;;;;;;;;;;;23.17;51.32;99568.16;2299584;75;51616;-75
2023/08/07 03:29:07;;;;;;;;;;;;;;;23.16;51.33;99567.34;2331160;76;50381;-75
2023/08/07 03:32:09;;;;;;;;;;;;;;;23.17;51.28;99570.35;2315212;76;50610;-75
2023/08/07 03:35:11;;;;;;;;;;;;;;;23.18;51.24;99570.62;2295671;76;52626;-74
2023/08/07 03:38:12;;;;;;;;;;;;;;;23.16;51.25;99574.09;2295069;76;51552;-74
2023/08/07 03:41:14;;;;;;;;;;;;;;;23.17;51.23;99576.25;2294466;76;52529;-74
2023/08/07 03:44:15;;;;;;;;;;;;;;;23.16;51.27;99575.44;2295332;76;51441;-75
2023/08/07 03:47:17;;;;;;;;;;;;;;;23.17;51.17;99583.84;2270461;76;51221;-74
2023/08/07 03:50:19;;;;;;;;;;;;;;;23.16;51.24;99587.58;2320341;76;50375;-75
2023/08/07 03:53:20;;;;;;;;;;;;;;;23.16;51.21;99579.48;2319496;76;50176;-75
2023/08/07 03:56:22;;;;;;;;;;;;;;;23.15;51.27;99577.05;2319111;75;50388;-75
2023/08/07 03:59:23;;;;;;;;;;;;;;;23.15;51.18;99590.55;2269901;75;51275;-74
2023/08/07 04:02:25;;;;;;;;;;;;;;;23.15;51.19;99585.95;2320651;76;49922;-75
2023/08/07 04:05:27;;;;;;;;;;;;;;;23.14;51.18;99580.25;2321423;76;50664;-74
2023/08/07 04:08:28;;;;;;;;;;;;;;;23.14;51.14;99588.34;2309023;76;50509;-75
2023/08/07 04:11:30;;;;;;;;;;;;;;;23.15;51.07;99590.00;2283460;76;51067;-76
2023/08/07 04:14:34;;;;;;;;;;;;;;;23.15;51.13;99575.70;2321574;76;51531;-75
2023/08/07 04:17:36;;;;;;;;;;;;;;;23.15;51.15;99583.26;2321480;75;51534;-75
2023/08/07 04:20:38;;;;;;;;;;;;;;;23.15;51.13;99584.61;2309565;76;51467;-74
2023/08/07 04:23:39;;;;;;;;;;;;;;;23.16;51.17;99587.58;2313044;75;51702;-75
2023/08/07 04:26:41;;;;;;;;;;;;;;;23.17;51.17;99577.10;2321511;75;51432;-75
2023/08/07 04:29:42;;;;;;;;;;;;;;;23.18;51.15;99588.70;2321808;76;51561;-74
2023/08/07 04:32:44;;;;;;;;;;;;;;;23.16;51.15;99575.44;2305969;76;50658;-74
2023/08/07 04:35:46;;;;;;;;;;;;;;;23.18;51.25;99584.13;2272414;76;53576;-75
2023/08/07 04:38:48;;;;;;;;;;;;;;;23.16;51.18;99579.48;2321549;75;50686;-75
2023/08/07 04:41:50;;;;;;;;;;;;;;;23.19;51.15;99590.33;2295512;76;51400;-74
2023/08/07 04:44:51;;;;;;;;;;;;;;;23.21;51.29;99587.69;2320149;76;50328;-74
2023/08/07 04:47:53;;;;;;;;;;;;;;;23.20;51.31;99594.16;2310111;76;50897;-74
2023/08/07 04:50:55;;;;;;;;;;;;;;;23.23;51.29;99592.86;2299818;76;50681;-74
2023/08/07 04:53:57;;;;;;;;;;;;;;;23.21;51.25;99589.03;2295731;76;50918;-74
2023/08/07 04:56:58;;;;;;;;;;;;;;;23.21;51.22;99600.37;2319552;75;51536;-76
2023/08/07 05:00:00;;;;;;;;;;;;;;;23.21;51.21;99602.53;2295956;76;51475;-75
2023/08/07 05:03:02;;;;;;;;;;;;;;;23.20;51.21;99602.25;2308024;76;50758;-74
2023/08/07 05:06:03;;;;;;;;;;;;;;;23.21;51.18;99603.88;2333068;75;51542;-74
2023/08/07 05:09:05;;;;;;;;;;;;;;;23.20;51.20;99602.25;2282583;78;51379;-73
2023/08/07 05:12:07;;;;;;;;;;;;;;;23.20;51.22;99599.55;2270713;77;52349;-74
2023/08/07 05:15:09;;;;;;;;;;;;;;;23.20;51.20;99604.95;2269606;78;50286;-74
2023/08/07 05:18:10;;;;;;;;;;;;;;;23.20;51.22;99606.30;2269187;78;50764;-74
2023/08/07 05:21:12;;;;;;;;;;;;;;;23.19;51.20;99607.34;2282770;76;51443;-74
2023/08/07 05:24:13;;;;;;;;;;;;;;;23.18;51.24;99609.77;2244480;78;50899;-74
2023/08/07 05:27:15;;;;;;;;;;;;;;;23.20;51.14;99613.05;2269253;78;51538;-73
2023/08/07 05:30:17;;;;;;;;;;;;;;;23.22;51.11;99616.84;2298997;76;51537;-74
2023/08/07 05:33:18;;;;;;;;;;;;;;;23.22;51.10;99616.33;2321526;76;51550;-74
2023/08/07 05:36:20;;;;;;;;;;;;;;;23.24;51.03;99623.64;2283182;75;52372;-74
2023/08/07 05:39:21;;;;;;;;;;;;;;;23.23;51.00;99627.41;2309623;76;51430;-72
2023/08/07 05:42:23;;;;;;;;;;;;;;;23.23;51.01;99628.76;2309697;76;51376;-74
2023/08/07 05:45:25;;;;;;;;;;;;;;;23.25;51.05;99629.34;2309706;75;50649;-75
2023/08/07 05:48:26;;;;;;;;;;;;;;;23.29;51.15;99632.91;2309242;76;52506;-73
2023/08/07 05:51:28;;;;;;;;;;;;;;;23.32;51.17;99644.03;2309702;76;50079;-74
2023/08/07 05:54:29;;;;;;;;;;;;;;;23.33;51.12;99637.59;2321574;75;50699;-75
2023/08/07 05:57:31;;;;;;;;;;;;;;;23.37;51.10;99644.67;2309363;76;50743;-74
2023/08/07 06:00:33;;;;;;;;;;;;;;;23.36;51.16;99651.14;2269079;76;49625;-75
2023/08/07 06:03:35;;;;;;;;;;;;;;;23.38;51.10;99644.98;2322234;75;51682;-75
2023/08/07 06:06:39;;;;;;;;;;;;;;;23.38;51.09;99640.40;2300479;75;50679;-77
2023/08/07 06:09:40;;;;;;;;;;;;;;;23.47;50.95;99636.78;2324184;76;22217;-74
2023/08/07 06:12:42;;;;;;;;;;;;;;;23.43;50.26;99629.70;2301097;76;51691;-75
2023/08/07 06:15:43;;;;;;;;;;;;;;;23.21;50.00;99632.22;2300333;76;52113;-76
2023/08/07 06:18:45;;;;;;;;;;;;;;;23.16;50.02;99642.91;2300904;76;51675;-76
2023/08/07 06:21:46;;;;;;;;;;;;;;;23.00;49.92;99645.00;2322802;76;51397;-74
2023/08/07 06:24:48;;;;;;;;;;;;;;;22.79;50.44;99653.95;2275263;76;51677;-77
2023/08/07 06:27:51;;;;;;;;;;;;;;;22.71;50.66;99658.36;2322263;75;50355;-75
2023/08/07 06:30:52;;;;;;;;;;;;;;;22.77;50.67;99664.15;2304575;76;50689;-75
2023/08/07 06:33:54;;;;;;;;;;;;;;;22.96;50.51;99669.41;2321968;76;51347;-75
2023/08/07 06:36:56;;;;;;;;;;;;;;;22.97;50.49;99675.97;2299905;75;51760;-76
2023/08/07 06:39:57;;;;;;;;;;;;;;;23.01;50.28;99673.61;2300617;75;51456;-77
2023/08/07 06:42:59;;;;;;;;;;;;;;;23.01;50.07;99675.77;2300173;76;51444;-76
2023/08/07 06:46:00;;;;;;;;;;;;;;;23.09;50.01;99677.82;2322097;75;51449;-77
2023/08/07 06:49:02;;;;;;;;;;;;;;;23.16;49.94;99674.48;2274695;76;51873;-76
2023/08/07 06:52:04;;;;;;;;;;;;;;;23.14;49.84;99688.73;2322194;75;51643;-77
2023/08/07 06:55:06;;;;;;;;;;;;;;;23.12;49.66;99672.79;2301115;76;51450;-76
2023/08/07 06:58:08;;;;;;;;;;;;;;;23.17;49.49;99681.00;2321952;75;50022;-75
2023/08/07 07:01:09;;;;;;;;;;;;;;;23.16;49.46;99673.94;2306849;76;52869;-76
2023/08/07 07:04:11;;;;;;;;;;;;;;;23.18;49.30;99674.53;2304541;76;51479;-75
2023/08/07 07:07:12;;;;;;;;;;;;;;;23.19;49.21;99678.05;2309686;76;51511;-74
2023/08/07 07:10:14;;;;;;;;;;;;;;;23.20;49.14;99685.91;2309721;76;50248;-76
2023/08/07 07:13:16;;;;;;;;;;;;;;;23.17;49.19;99681.00;2310078;76;51206;-75
2023/08/07 07:16:21;;;;;;;;;;;;;;;23.17;49.22;99685.05;2310078;75;51421;-74
2023/08/07 07:19:23;;;;;;;;;;;;;;;23.16;49.28;99690.13;2322627;75;50064;-75
2023/08/07 07:22:24;;;;;;;;;;;;;;;23.12;49.42;99689.48;2310210;76;51422;-75
2023/08/07 07:25:26;;;;;;;;;;;;;;;23.10;49.48;99708.62;2310167;76;52355;-74
2023/08/07 07:28:28;;;;;;;;;;;;;;;23.09;49.58;99702.92;2321994;75;51665;-75
2023/08/07 07:31:29;;;;;;;;;;;;;;;23.09;49.60;99697.52;2289955;76;51564;-75
2023/08/07 07:34:31;;;;;;;;;;;;;;;23.07;49.67;99698.31;2285905;76;50738;-75
2023/08/07 07:37:32;;;;;;;;;;;;;;;23.08;49.71;99705.34;2278204;77;51544;-75
2023/08/07 07:40:37;;;;;;;;;;;;;;;23.04;49.96;99705.50;2278371;77;51437;-75
2023/08/07 07:43:39;;;;;;;;;;;;;;;23.04;49.99;99704.16;2278361;77;51837;-74
2023/08/07 07:46:40;;;;;;;;;;;;;;;23.05;49.95;99717.95;2258937;77;51402;-75
2023/08/07 07:49:47;;;;;;;;;;;;;;;23.06;49.96;99727.69;2259076;78;50985;-75
2023/08/07 07:52:49;;;;;;;;;;;;;;;23.07;49.97;99703.70;2259533;77;51529;-75
2023/08/07 07:55:50;;;;;;;;;;;;;;;23.09;50.00;99727.20;2259035;78;50271;-74
2023/08/07 07:58:52;;;;;;;;;;;;;;;23.10;49.99;99718.08;2258934;77;50318;-74
2023/08/07 08:01:53;;;;;;;;;;;;;;;23.09;50.05;99720.46;2287174;76;52338;-74
2023/08/07 08:04:56;;;;;;;;;;;;;;;23.07;50.13;99732.05;2309755;76;50274;-75
2023/08/07 08:07:57;;;;;;;;;;;;;;;23.08;50.11;99722.88;2309587;76;51591;-74
2023/08/07 08:10:59;;;;;;;;;;;;;;;23.10;50.12;99738.84;2321977;75;51445;-74
2023/08/07 08:14:00;;;;;;;;;;;;;;;23.07;50.23;99737.44;2309631;76;52307;-75
2023/08/07 08:17:02;;;;;;;;;;;;;;;23.08;50.20;99735.02;2309596;76;51457;-74
2023/08/07 08:20:04;;;;;;;;;;;;;;;23.11;50.13;99733.20;2321960;76;50417;-74
2023/08/07 08:23:06;;;;;;;;;;;;;;;23.12;50.12;99734.01;2322047;75;51417;-74
2023/08/07 08:26:07;;;;;;;;;;;;;;;23.10;50.18;99732.09;2309695;75;52572;-72
2023/08/07 08:29:09;;;;;;;;;;;;;;;23.11;50.13;99741.83;2321859;76;50632;-75
2023/08/07 08:32:11;;;;;;;;;;;;;;;23.14;50.12;99746.21;2303054;76;51380;-74
2023/08/07 08:35:12;;;;;;;;;;;;;;;23.10;50.15;99739.66;2321966;76;50425;-75
2023/08/07 08:38:16;;;;;;;;;;;;;;;23.09;50.20;99742.58;2321836;75;50648;-75
2023/08/07 08:41:17;;;;;;;;;;;;;;;23.09;50.19;99743.93;2322400;75;22723;-74
2023/08/07 08:44:20;;;;;;;;;;;;;;;23.10;50.16;99751.80;2321910;75;51508;-75
2023/08/07 08:47:22;;;;;;;;;;;;;;;23.11;50.18;99757.48;2321799;75;50588;-73
2023/08/07 08:50:24;;;;;;;;;;;;;;;23.11;50.16;99762.88;2309749;76;52544;-75
2023/08/07 08:53:25;;;;;;;;;;;;;;;23.13;50.12;99755.38;2321992;76;50256;-76
2023/08/07 08:56:27;;;;;;;;;;;;;;;23.11;50.15;99750.73;2321835;75;50600;-74
2023/08/07 08:59:28;;;;;;;;;;;;;;;23.12;50.16;99764.54;2321693;76;50411;-74
2023/08/07 09:02:30;;;;;;;;;;;;;;;23.13;50.14;99751.33;2300134;76;51211;-75
2023/08/07 09:05:31;;;;;;;;;;;;;;;23.14;50.17;99761.59;2320041;76;50633;-75
2023/08/07 09:08:33;;;;;;;;;;;;;;;23.13;50.16;99758.08;2319948;75;50736;-75
2023/08/07 09:11:35;;;;;;;;;;;;;;;23.14;50.12;99744.86;2320214;76;51438;-76
2023/08/07 09:14:36;;;;;;;;;;;;;;;23.15;50.11;99749.22;2308492;76;52608;-75
2023/08/07 09:17:41;;;;;;;;;;;;;;;23.16;50.12;99737.36;2319749;75;51411;-74
2023/08/07 09:20:42;;;;;;;;;;;;;;;23.16;50.10;99737.89;2319846;76;50438;-74
2023/08/07 09:23:44;;;;;;;;;;;;;;;23.15;50.12;99736.27;2319894;76;50506;-77
2023/08/07 09:26:45;;;;;;;;;;;;;;;23.15;50.14;99745.70;2308156;75;51796;-75
2023/08/07 09:29:47;;;;;;;;;;;;;;;23.12;50.17;99770.44;2320775;76;51437;-76
2023/08/07 09:32:49;;;;;;;;;;;;;;;23.14;50.11;99757.00;2293038;75;51483;-75
2023/08/07 09:35:51;;;;;;;;;;;;;;;23.15;50.13;99766.77;2333661;76;50340;-75
2023/08/07 09:38:52;;;;;;;;;;;;;;;23.14;50.14;99765.10;2333380;75;50425;-76
2023/08/07 09:41:54;;;;;;;;;;;;;;;23.15;50.12;99762.72;2333834;76;50684;-74
2023/08/07 09:44:55;;;;;;;;;;;;;;;23.17;50.09;99767.36;2333722;76;50631;-74
2023/08/07 09:47:59;;;;;;;;;;;;;;;23.17;50.09;99766.01;2333492;75;51720;-75
2023/08/07 09:51:03;;;;;;;;;;;;;;;23.17;50.08;99778.16;2299220;76;51730;-75
2023/08/07 09:54:05;;;;;;;;;;;;;;;23.18;50.12;99770.88;2334014;76;50418;-75
2023/08/07 09:57:07;;;;;;;;;;;;;;;23.20;50.08;99775.52;2299698;76;50620;-73
2023/08/07 10:00:11;;;;;;;;;;;;;;;23.19;50.11;99793.55;2329646;75;52634;-76
2023/08/07 10:03:12;;;;;;;;;;;;;;;23.20;50.12;99781.72;2321720;76;22461;-74
2023/08/07 10:06:13;;;;;;;;;;;;;;;23.19;50.12;99782.76;2320229;75;51529;-74
2023/08/07 10:09:15;;;;;;;;;;;;;;;23.20;50.11;99780.91;2320418;76;51575;-75
2023/08/07 10:12:17;;;;;;;;;;;;;;;23.21;50.09;99794.69;2320733;76;51417;-76
2023/08/07 10:15:19;;;;;;;;;;;;;;;23.20;50.10;99792.52;2309340;76;52629;-76
2023/08/07 10:18:21;;;;;;;;;;;;;;;23.22;50.04;99778.77;2320987;75;50323;-76
2023/08/07 10:21:23;;;;;;;;;;;;;;;23.22;50.02;99776.92;2321223;76;50778;-76
2023/08/07 10:24:25;;;;;;;;;;;;;;;23.21;50.06;99775.26;2321006;76;51346;-75
2023/08/07 10:27:27;;;;;;;;;;;;;;;23.21;50.03;99776.61;2271299;76;51701;-75
2023/08/07 10:30:28;;;;;;;;;;;;;;;23.20;50.05;99777.67;2321257;76;50866;-75
2023/08/07 10:33:30;;;;;;;;;;;;;;;23.22;50.04;99775.57;2320783;75;51382;-76
2023/08/07 10:36:34;;;;;;;;;;;;;;;23.21;50.08;99783.35;2319825;75;50393;-75
2023/08/07 10:39:38;;;;;;;;;;;;;;;23.20;50.05;99777.67;2320369;76;50296;-75
2023/08/07 10:42:47;;;;;;;;;;;;;;;23.21;50.02;99769.86;2296422;76;24061;-75
2023/08/07 10:45:48;;;;;;;;;;;;;;;23.21;50.02;99775.80;2303231;76;50746;-76
2023/08/07 10:48:59;;;;;;;;;;;;;;;23.20;50.00;99773.63;2319906;75;50632;-75
2023/08/07 10:52:05;;;;;;;;;;;;;;;23.20;50.01;99776.86;2271182;76;51220;-75
2023/08/07 10:55:08;;;;;;;;;;;;;;;23.21;49.98;99775.26;2320209;76;50764;-75
2023/08/07 10:58:11;;;;;;;;;;;;;;;23.22;49.97;99773.37;2319057;75;50824;-76
2023/08/07 11:01:14;;;;;;;;;;;;;;;23.21;50.00;99790.64;2319018;76;51654;-76
2023/08/07 11:04:16;;;;;;;;;;;;;;;23.22;49.96;99782.82;2296618;76;51218;-77
2023/08/07 11:07:25;;;;;;;;;;;;;;;23.22;49.93;99786.36;2295729;76;50656;-74
2023/08/07 11:10:26;;;;;;;;;;;;;;;23.21;49.92;99790.64;2320160;76;50679;-75
2023/08/07 11:13:30;;;;;;;;;;;;;;;23.20;49.95;99805.20;2320100;76;50700;-74
2023/08/07 11:16:31;;;;;;;;;;;;;;;23.17;49.96;99794.34;2295250;75;52409;-76
2023/08/07 11:19:33;;;;;;;;;;;;;;;23.16;49.99;99787.28;2319969;76;51447;-76
2023/08/07 11:22:34;;;;;;;;;;;;;;;23.17;49.94;99799.73;2319645;76;51397;-76
2023/08/07 11:25:36;;;;;;;;;;;;;;;23.17;49.90;99802.44;2295262;76;51613;-74
2023/08/07 11:28:38;;;;;;;;;;;;;;;23.19;49.58;99796.25;2319164;75;51452;-75
2023/08/07 11:31:39;;;;;;;;;;;;;;;23.18;49.30;99795.97;2321318;76;51405;-76
2023/08/07 11:34:41;;;;;;;;;;;;;;;23.16;49.20;99785.94;2312693;76;52173;-73
2023/08/07 11:37:46;;;;;;;;;;;;;;;23.11;49.53;99797.95;2319866;75;50245;-74
2023/08/07 11:40:47;;;;;;;;;;;;;;;23.09;49.64;99801.41;2281681;76;51247;-75
2023/08/07 11:43:49;;;;;;;;;;;;;;;23.04;49.73;99803.48;2262545;76;50123;-75
2023/08/07 11:46:51;;;;;;;;;;;;;;;23.03;49.86;99792.38;2321053;75;50624;-76
2023/08/07 11:49:53;;;;;;;;;;;;;;;23.04;49.85;99791.84;2319754;76;50338;-75
2023/08/07 11:53:00;;;;;;;;;;;;;;;23.05;50.06;99813.75;2283130;76;52509;-75
2023/08/07 11:56:01;;;;;;;;;;;;;;;23.04;50.09;99816.97;2321779;76;22406;-75
2023/08/07 11:59:03;;;;;;;;;;;;;;;23.04;50.13;99795.89;2321080;76;50347;-74
2023/08/07 12:02:06;;;;;;;;;;;;;;;23.02;50.33;99793.45;2296175;76;50638;-74
2023/08/07 12:05:10;;;;;;;;;;;;;;;23.01;50.53;99782.88;2302234;76;51825;-74
2023/08/07 12:08:12;;;;;;;;;;;;;;;23.00;50.56;99802.30;2306749;76;50817;-74
2023/08/07 12:11:13;;;;;;;;;;;;;;;23.01;50.58;99785.58;2325413;76;50770;-76
2023/08/07 12:14:18;;;;;;;;;;;;;;;23.01;50.58;99783.69;2322115;75;50615;-74
2023/08/07 12:17:19;;;;;;;;;;;;;;;23.02;50.55;99787.23;2273363;76;51104;-74
2023/08/07 12:20:22;;;;;;;;;;;;;;;23.03;50.55;99782.13;2302480;76;50352;-73
2023/08/07 12:23:24;;;;;;;;;;;;;;;23.03;50.58;99787.52;2312721;76;50941;-74
2023/08/07 12:26:26;;;;;;;;;;;;;;;23.04;50.50;99776.50;2322677;75;50734;-75
2023/08/07 12:29:29;;;;;;;;;;;;;;;23.05;50.48;99781.36;2261893;76;51279;-74
2023/08/07 12:32:30;;;;;;;;;;;;;;;23.08;50.38;99776.84;2322802;75;51491;-75
2023/08/07 12:35:32;;;;;;;;;;;;;;;23.08;50.89;99788.98;2300794;76;51444;-73
2023/08/07 12:38:34;;;;;;;;;;;;;;;23.06;51.31;99784.34;2309292;75;50755;-75
2023/08/07 12:41:35;;;;;;;;;;;;;;;23.08;51.73;99786.29;2309898;76;51227;-76
2023/08/07 12:44:37;;;;;;;;;;;;;;;23.09;52.26;99796.02;2321863;75;50486;-75
2023/08/07 12:47:38;;;;;;;;;;;;;;;23.10;52.61;99790.12;2321977;75;50621;-76
2023/08/07 12:50:40;;;;;;;;;;;;;;;23.16;52.88;99799.96;2310229;76;50298;-74
2023/08/07 12:53:41;;;;;;;;;;;;;;;23.18;52.74;99801.38;2309677;76;51159;-75
2023/08/07 12:56:43;;;;;;;;;;;;;;;23.16;52.79;99794.03;2308669;75;50616;-76
2023/08/07 12:59:45;;;;;;;;;;;;;;;23.16;52.65;99799.96;2321897;76;51396;-75
2023/08/07 13:02:46;;;;;;;;;;;;;;;23.16;52.56;99814.80;2309887;76;51437;-76
2023/08/07 13:05:48;;;;;;;;;;;;;;;23.14;52.49;99832.56;2300177;76;50147;-76
2023/08/07 13:08:50;;;;;;;;;;;;;;;23.13;52.70;99855.22;2302980;76;50705;-76
2023/08/07 13:11:51;;;;;;;;;;;;;;;23.14;52.68;99850.11;2296657;76;50287;-76
2023/08/07 13:14:53;;;;;;;;;;;;;;;23.14;52.90;99840.66;2296723;76;50626;-76
2023/08/07 13:17:55;;;;;;;;;;;;;;;23.16;53.00;99833.70;2308342;76;51712;-77
2023/08/07 13:20:56;;;;;;;;;;;;;;;23.18;53.04;99832.41;2295625;76;50654;-76
2023/08/07 13:23:58;;;;;;;;;;;;;;;23.18;53.16;99827.01;2319701;76;51377;-77
2023/08/07 13:26:59;;;;;;;;;;;;;;;23.19;53.10;99836.73;2319548;75;50778;-76
2023/08/07 13:30:01;;;;;;;;;;;;;;;23.16;53.53;99842.61;2308226;76;50685;-77
2023/08/07 13:33:03;;;;;;;;;;;;;;;23.17;53.64;99844.77;2295545;76;51452;-74
2023/08/07 13:36:04;;;;;;;;;;;;;;;23.15;53.65;99863.91;2282232;76;50311;-77
2023/08/07 13:39:06;;;;;;;;;;;;;;;23.17;53.65;99852.37;2275548;78;52369;-77
2023/08/07 13:42:08;;;;;;;;;;;;;;;23.15;53.93;99855.82;2244172;78;52427;-75
2023/08/07 13:45:10;;;;;;;;;;;;;;;23.16;54.02;99870.13;2269151;77;50072;-75
2023/08/07 13:48:11;;;;;;;;;;;;;;;23.16;53.95;99870.95;2268877;77;50606;-76
2023/08/07 13:51:14;;;;;;;;;;;;;;;23.18;53.99;99870.72;2280783;78;51446;-76
2023/08/07 13:54:15;;;;;;;;;;;;;;;23.17;54.17;99868.56;2269068;78;51208;-75
2023/08/07 13:57:17;;;;;;;;;;;;;;;23.18;54.19;99880.17;2268962;76;52364;-75
2023/08/07 14:00:19;;;;;;;;;;;;;;;23.18;54.43;99879.64;2269150;77;50820;-75
2023/08/07 14:03:21;;;;;;;;;;;;;;;23.17;54.34;99887.45;2269279;76;50496;-76
2023/08/07 14:06:23;;;;;;;;;;;;;;;23.17;54.43;99887.95;2280680;75;51726;-76
2023/08/07 14:09:24;;;;;;;;;;;;;;;23.17;54.45;99893.34;2294984;76;50699;-77
2023/08/07 14:12:27;;;;;;;;;;;;;;;23.16;54.56;99903.33;2321765;76;51419;-77
2023/08/07 14:15:28;;;;;;;;;;;;;;;23.17;54.57;99904.14;2321835;76;50293;-76
2023/08/07 14:18:30;;;;;;;;;;;;;;;23.16;54.73;99899.28;2309205;76;49539;-77
2023/08/07 14:21:31;;;;;;;;;;;;;;;23.15;54.97;99914.38;2309629;76;50458;-75
2023/08/07 14:24:33;;;;;;;;;;;;;;;23.14;54.96;99919.45;2321926;76;51497;-75
2023/08/07 14:27:34;;;;;;;;;;;;;;;23.13;55.06;99929.44;2309572;76;50702;-76
2023/08/07 14:30:36;;;;;;;;;;;;;;;23.15;54.95;99930.56;2321967;76;51449;-75
2023/08/07 14:33:38;;;;;;;;;;;;;;;23.13;55.02;99942.93;2283852;76;52287;-76
2023/08/07 14:36:40;;;;;;;;;;;;;;;23.14;55.07;99941.05;2308608;75;50675;-76
2023/08/07 14:39:42;;;;;;;;;;;;;;;23.12;55.16;99952.09;2273129;78;50398;-76
2023/08/07 14:42:43;;;;;;;;;;;;;;;23.13;55.13;99914.59;2269127;77;50156;-76
2023/08/07 14:45:45;;;;;;;;;;;;;;;23.11;55.20;99945.56;2280922;76;50745;-76
2023/08/07 14:48:47;;;;;;;;;;;;;;;23.11;55.14;99955.82;2280575;76;50044;-75
2023/08/07 14:51:48;;;;;;;;;;;;;;;23.13;55.11;99965.87;2280886;78;50440;-76
2023/08/07 14:54:50;;;;;;;;;;;;;;;23.11;55.16;99964.45;2281018;76;50658;-75
2023/08/07 14:57:51;;;;;;;;;;;;;;;23.11;55.39;99967.15;2244035;78;51268;-75
2023/08/07 15:00:56;;;;;;;;;;;;;;;23.10;55.28;99979.83;2281026;76;50716;-76
2023/08/07 15:03:57;;;;;;;;;;;;;;;23.10;55.41;99979.83;2281083;78;50418;-76
2023/08/07 15:06:59;;;;;;;;;;;;;;;23.09;55.34;99984.91;2279214;75;50230;-76
2023/08/07 15:10:00;;;;;;;;;;;;;;;23.08;55.50;100006.74;2266611;76;51693;-75
2023/08/07 15:13:02;;;;;;;;;;;;;;;23.06;55.48;99998.86;2295351;76;50634;-75
2023/08/07 15:16:04;;;;;;;;;;;;;;;23.06;55.47;99974.58;2319659;75;50413;-76
2023/08/07 15:19:05;;;;;;;;;;;;;;;23.06;55.50;100005.61;2295360;76;50866;-76
2023/08/07 15:22:07;;;;;;;;;;;;;;;23.06;55.36;99990.77;2290760;76;51699;-76
2023/08/07 15:25:09;;;;;;;;;;;;;;;23.11;56.85;100002.23;2281598;78;50895;-75
2023/08/07 15:28:10;;;;;;;;;;;;;;;23.10;55.12;99986.57;2281499;76;50141;-77
2023/08/07 15:31:12;;;;;;;;;;;;;;;23.09;54.44;99999.75;2301980;76;50253;-75
2023/08/07 15:34:14;;;;;;;;;;;;;;;23.16;54.94;99993.73;2275912;76;51211;-75
2023/08/07 15:37:15;;;;;;;;;;;;;;;23.07;55.32;99991.09;2295092;76;50623;-74
2023/08/07 15:40:17;;;;;;;;;;;;;;;23.03;55.67;100000.67;2319502;76;50759;-74
2023/08/07 15:43:18;;;;;;;;;;;;;;;23.04;55.90;99990.17;2319901;76;50232;-76
2023/08/07 15:46:20;;;;;;;;;;;;;;;23.06;56.14;100001.56;2269975;75;51706;-76